createdAt,value
2018-04-09T00:01:57.050Z,61.70
2018-04-09T00:04:24.519Z,62.37
2018-04-09T00:06:51.973Z,65.33
2018-04-09T00:09:19.450Z,57.23
2018-04-09T00:11:46.918Z,67.27
2018-04-09T00:14:15.137Z,66.07
2018-04-09T00:16:42.613Z,63.40
2018-04-09T00:19:10.073Z,66.10
2018-04-09T00:21:37.530Z,69.47
2018-04-09T00:24:05.004Z,66.13
2018-04-09T00:26:32.470Z,56.17
2018-04-09T00:29:00.729Z,65.43
2018-04-09T00:31:28.202Z,64.83
2018-04-09T00:33:55.653Z,57.07
2018-04-09T00:36:23.119Z,57.80
2018-04-09T00:38:51.366Z,59.93
2018-04-09T00:41:18.830Z,61.10
2018-04-09T00:43:46.293Z,59.97
2018-04-09T00:46:13.768Z,59.50
2018-04-09T00:48:41.990Z,57.43
2018-04-09T00:51:09.455Z,58.10
2018-04-09T00:53:48.806Z,55.00
2018-04-09T00:56:17.039Z,52.40
2018-04-09T00:58:44.499Z,64.53
2018-04-09T01:01:11.974Z,65.43
2018-04-09T01:03:39.451Z,65.13
2018-04-09T01:06:06.914Z,55.10
2018-04-09T01:08:34.389Z,59.67
2018-04-09T01:11:02.613Z,59.53
2018-04-09T01:13:30.126Z,66.93
2018-04-09T01:15:57.575Z,63.93
2018-04-09T01:18:25.025Z,70.43
2018-04-09T01:20:53.998Z,58.63
2018-04-09T01:23:21.491Z,67.50
2018-04-09T01:25:49.718Z,66.33
2018-04-09T01:28:17.181Z,64.97
2018-04-09T01:30:44.659Z,67.07
2018-04-09T01:33:12.127Z,69.53
2018-04-09T01:35:39.606Z,65.20
2018-04-09T01:38:07.828Z,69.83
2018-04-09T01:40:35.287Z,72.83
2018-04-09T01:43:02.748Z,71.93
2018-04-09T01:45:30.221Z,67.90
2018-04-09T01:47:57.678Z,78.27
2018-04-09T01:50:25.150Z,72.27
2018-04-09T01:52:53.388Z,65.13
2018-04-09T01:55:20.849Z,67.97
2018-04-09T01:57:48.325Z,66.17
2018-04-09T02:00:15.791Z,76.80
2018-04-09T02:02:44.049Z,72.30
2018-04-09T02:05:11.478Z,71.53
2018-04-09T02:07:38.970Z,76.73
2018-04-09T02:10:06.425Z,71.90
2018-04-09T02:12:35.805Z,77.57
2018-04-09T02:15:03.277Z,65.87
2018-04-09T02:17:30.733Z,76.93
2018-04-09T02:19:58.200Z,67.07
2018-04-09T02:22:25.674Z,66.03
2018-04-09T02:24:53.905Z,63.87
2018-04-09T02:27:21.361Z,79.20
2018-04-09T02:29:48.838Z,75.03
2018-04-09T02:32:16.295Z,78.90
2018-04-09T02:34:43.758Z,78.43
2018-04-09T02:37:11.249Z,70.57
2018-04-09T02:39:39.458Z,68.53
2018-04-09T02:42:06.924Z,78.33
2018-04-09T02:44:34.395Z,64.60
2018-04-09T02:47:01.854Z,69.00
2018-04-09T02:49:29.366Z,62.43
2018-04-09T02:51:56.826Z,67.80
2018-04-09T02:54:24.311Z,62.00
2018-04-09T02:56:51.771Z,80.80
2018-04-09T02:59:19.245Z,72.40
2018-04-09T03:01:46.796Z,75.30
2018-04-09T03:04:14.257Z,72.47
2018-04-09T03:06:41.724Z,73.40
2018-04-09T03:09:09.186Z,67.13
2018-04-09T03:11:36.681Z,64.83
2018-04-09T03:14:04.145Z,81.10
2018-04-09T03:16:31.606Z,67.20
2018-04-09T03:18:59.069Z,71.37
2018-04-09T03:21:26.533Z,68.23
2018-04-09T03:23:54.002Z,76.27
2018-04-09T03:26:21.478Z,73.73
2018-04-09T03:28:48.936Z,64.80
2018-04-09T03:31:17.255Z,70.03
2018-04-09T03:33:44.716Z,68.40
2018-04-09T03:36:12.201Z,65.73
2018-04-09T03:38:39.657Z,76.40
2018-04-09T03:41:07.118Z,73.50
2018-04-09T03:43:34.598Z,66.47
2018-04-09T03:46:02.829Z,80.43
2018-04-09T03:48:30.274Z,68.03
2018-04-09T03:50:57.750Z,65.23
2018-04-09T03:53:25.215Z,67.53
2018-04-09T03:55:52.665Z,72.70
2018-04-09T03:58:20.144Z,82.40
2018-04-09T04:00:47.581Z,70.30
2018-04-09T04:03:15.038Z,71.43
2018-04-09T04:05:42.514Z,70.73
2018-04-09T04:08:09.973Z,70.93
2018-04-09T04:10:37.428Z,61.63
2018-04-09T04:13:04.980Z,70.33
2018-04-09T04:15:44.222Z,62.23
2018-04-09T04:18:30.205Z,65.87
2018-04-09T04:21:22.078Z,70.47
2018-04-09T04:23:49.554Z,79.70
2018-04-09T04:26:17.019Z,72.97
2018-04-09T04:28:44.465Z,74.97
2018-04-09T04:31:11.965Z,76.57
2018-04-09T04:33:39.385Z,72.93
2018-04-09T04:36:06.848Z,80.37
2018-04-09T04:38:34.318Z,78.80
2018-04-09T04:41:01.773Z,87.07
2018-04-09T04:43:29.229Z,91.10
2018-04-09T04:45:56.701Z,77.23
2018-04-09T04:48:24.162Z,80.93
2018-04-09T04:50:51.622Z,84.10
2018-04-09T04:53:19.094Z,88.10
2018-04-09T04:55:46.553Z,87.67
2018-04-09T04:58:15.660Z,71.43
2018-04-09T05:00:43.881Z,81.20
2018-04-09T05:03:11.369Z,76.30
2018-04-09T05:05:38.834Z,88.30
2018-04-09T05:08:07.068Z,91.90
2018-04-09T05:10:34.524Z,87.80
2018-04-09T05:13:01.987Z,80.73
2018-04-09T05:15:29.453Z,75.90
2018-04-09T05:17:56.918Z,79.53
2018-04-09T05:20:24.374Z,70.97
2018-04-09T05:22:51.855Z,99.03
2018-04-09T05:25:20.118Z,76.00
2018-04-09T05:27:48.362Z,71.87
2018-04-09T05:30:15.827Z,83.73
2018-04-09T05:32:43.285Z,81.80
2018-04-09T05:35:10.748Z,75.87
2018-04-09T05:37:38.211Z,81.53
2018-04-09T05:40:05.657Z,85.73
2018-04-09T05:42:33.135Z,82.17
2018-04-09T05:45:00.598Z,78.87
2018-04-09T05:47:28.816Z,83.87
2018-04-09T05:49:57.045Z,91.97
2018-04-09T05:52:25.270Z,77.60
2018-04-09T05:54:52.725Z,84.83
2018-04-09T05:57:20.204Z,82.77
2018-04-09T05:59:47.657Z,84.00
2018-04-09T06:02:15.111Z,78.50
2018-04-09T06:04:42.577Z,87.10
2018-04-09T06:07:10.038Z,88.13
2018-04-09T06:09:37.493Z,74.50
2018-04-09T06:12:04.970Z,82.70
2018-04-09T06:14:33.199Z,78.47
2018-04-09T06:17:00.661Z,86.50
2018-04-09T06:19:28.134Z,81.60
2018-04-09T06:21:55.605Z,84.80
2018-04-09T06:24:23.066Z,79.40
2018-04-09T06:26:50.535Z,82.27
2018-04-09T06:29:18.774Z,87.80
2018-04-09T06:31:46.221Z,90.40
2018-04-09T06:34:13.707Z,103.23
2018-04-09T06:36:42.669Z,91.17
2018-04-09T06:39:10.139Z,86.60
2018-04-09T06:41:37.607Z,85.30
2018-04-09T06:44:05.069Z,84.73
2018-04-09T06:46:32.529Z,88.60
2018-04-09T06:48:59.998Z,91.40
2018-04-09T06:51:28.221Z,82.90
2018-04-09T06:53:55.694Z,98.23
2018-04-09T06:56:23.167Z,94.63
2018-04-09T06:58:50.626Z,98.27
2018-04-09T07:01:18.086Z,71.53
2018-04-09T07:03:45.606Z,73.60
2018-04-09T07:06:13.034Z,82.93
2018-04-09T07:08:40.521Z,91.73
2018-04-09T07:11:07.996Z,77.90
2018-04-09T07:13:35.453Z,80.60
2018-04-09T07:16:02.915Z,78.57
2018-04-09T07:18:30.394Z,84.80
2018-04-09T07:20:58.622Z,84.10
2018-04-09T07:23:26.984Z,80.57
2018-04-09T07:25:54.498Z,84.63
2018-04-09T07:28:22.742Z,89.30
2018-04-09T07:30:50.210Z,90.70
2018-04-09T07:33:17.681Z,85.77
2018-04-09T07:35:45.143Z,92.40
2018-04-09T07:38:12.600Z,74.13
2018-04-09T07:40:40.862Z,89.23
2018-04-09T07:43:08.322Z,91.57
2018-04-09T07:45:35.781Z,81.53
2018-04-09T07:48:03.263Z,87.80
2018-04-09T07:50:31.497Z,77.00
2018-04-09T07:52:58.945Z,75.43
2018-04-09T07:55:26.422Z,76.50
2018-04-09T07:57:53.904Z,73.63
2018-04-09T08:00:22.126Z,69.57
2018-04-09T08:02:49.600Z,76.07
2018-04-09T08:05:17.062Z,77.77
2018-04-09T08:07:44.521Z,70.13
2018-04-09T08:10:11.995Z,71.87
2018-04-09T08:12:39.449Z,71.10
2018-04-09T08:15:06.906Z,69.37
2018-04-09T08:17:35.161Z,70.27
2018-04-09T08:20:02.620Z,69.23
2018-04-09T08:22:30.094Z,73.53
2018-04-09T08:24:57.558Z,71.87
2018-04-09T08:27:25.876Z,67.00
2018-04-09T08:29:53.321Z,80.33
2018-04-09T08:32:20.789Z,64.10
2018-04-09T08:34:48.257Z,68.27
2018-04-09T08:37:15.746Z,60.43
2018-04-09T08:39:43.213Z,60.07
2018-04-09T08:42:11.449Z,72.83
2018-04-09T08:44:38.920Z,73.43
2018-04-09T08:47:06.389Z,73.70
2018-04-09T08:49:33.846Z,64.13
2018-04-09T08:52:01.302Z,66.67
2018-04-09T08:54:28.768Z,67.90
2018-04-09T08:56:56.239Z,63.20
2018-04-09T08:59:24.468Z,74.10
2018-04-09T09:01:51.938Z,63.43
2018-04-09T09:04:19.425Z,66.97
2018-04-09T09:06:46.918Z,64.33
2018-04-09T09:09:14.384Z,62.53
2018-04-09T09:11:41.841Z,63.50
2018-04-09T09:14:09.314Z,54.10
2018-04-09T09:16:36.785Z,62.73
2018-04-09T09:19:04.252Z,54.23
2018-04-09T09:21:31.710Z,66.73
2018-04-09T09:23:59.181Z,65.03
2018-04-09T09:26:27.401Z,68.33
2018-04-09T09:28:54.894Z,64.30
2018-04-09T09:31:22.370Z,57.57
2018-04-09T09:33:50.601Z,60.77
2018-04-09T09:36:18.067Z,54.17
2018-04-09T09:38:45.563Z,60.17
2018-04-09T09:41:13.798Z,70.03
2018-04-09T09:43:41.306Z,69.00
2018-04-09T09:46:08.787Z,68.67
2018-04-09T09:48:36.247Z,56.63
2018-04-09T09:51:03.701Z,59.17
2018-04-09T09:53:31.169Z,55.73
2018-04-09T09:55:58.670Z,62.70
2018-04-09T09:58:26.131Z,59.13
2018-04-09T10:00:54.374Z,58.77
2018-04-09T10:03:28.205Z,48.50
2018-04-09T10:05:55.738Z,53.23
2018-04-09T10:08:23.217Z,58.03
2018-04-09T10:10:50.677Z,57.10
2018-04-09T10:13:18.944Z,49.80
2018-04-09T10:15:46.404Z,54.10
2018-04-09T10:18:13.878Z,49.63
2018-04-09T10:20:42.177Z,51.07
2018-04-09T10:23:09.639Z,52.67
2018-04-09T10:25:37.101Z,52.27
2018-04-09T10:28:04.590Z,51.27
2018-04-09T10:30:32.054Z,55.00
2018-04-09T10:32:59.526Z,54.30
2018-04-09T10:35:27.033Z,49.47
2018-04-09T10:37:54.992Z,49.53
2018-04-09T10:40:22.460Z,49.63
2018-04-09T10:42:49.939Z,80.33
2018-04-09T10:45:17.434Z,56.87
2018-04-09T10:47:45.672Z,57.13
2018-04-09T10:50:13.156Z,57.03
2018-04-09T10:52:40.616Z,53.10
2018-04-09T10:55:08.078Z,56.30
2018-04-09T10:57:36.329Z,52.93
2018-04-09T11:00:03.788Z,61.63
2018-04-09T11:02:31.241Z,61.43
2018-04-09T11:04:58.709Z,51.50
2018-04-09T11:07:26.178Z,74.60
2018-04-09T11:09:54.401Z,65.30
2018-04-09T11:12:21.884Z,60.50
2018-04-09T11:14:49.352Z,54.13
2018-04-09T11:17:16.870Z,55.67
2018-04-09T11:19:44.334Z,50.47
2018-04-09T11:22:11.822Z,55.83
2018-04-09T11:24:39.288Z,59.53
2018-04-09T11:27:06.758Z,47.93
2018-04-09T11:29:34.990Z,60.73
2018-04-09T11:32:03.214Z,56.20
2018-04-09T11:34:31.567Z,57.80
2018-04-09T11:36:59.040Z,54.63
2018-04-09T11:39:26.525Z,51.37
2018-04-09T11:41:53.996Z,49.80
2018-04-09T11:44:21.469Z,47.90
2018-04-09T11:46:48.929Z,44.47
2018-04-09T11:49:16.409Z,47.30
2018-04-09T11:51:43.871Z,47.47
2018-04-09T11:54:11.360Z,53.27
2018-04-09T11:56:38.841Z,51.10
2018-04-09T11:59:06.307Z,48.63
2018-04-09T12:01:33.765Z,46.33
2018-04-09T12:04:01.257Z,53.40
2018-04-09T12:06:28.720Z,54.23
2018-04-09T12:08:56.185Z,48.30
2018-04-09T12:11:24.419Z,45.83
2018-04-09T12:13:51.889Z,44.17
2018-04-09T12:16:19.356Z,51.40
2018-04-09T12:18:46.850Z,40.87
2018-04-09T12:21:14.318Z,42.67
2018-04-09T12:23:41.774Z,45.53
2018-04-09T12:26:09.263Z,44.07
2018-04-09T12:28:36.724Z,49.73
2018-04-09T12:31:04.183Z,39.07
2018-04-09T12:33:31.656Z,45.93
2018-04-09T12:35:59.116Z,42.90
2018-04-09T12:38:26.576Z,44.27
2018-04-09T12:40:54.365Z,42.57
2018-04-09T12:43:22.604Z,46.70
2018-04-09T12:45:50.060Z,41.67
2018-04-09T12:48:17.536Z,44.37
2018-04-09T12:50:45.764Z,54.03
2018-04-09T12:53:13.991Z,40.87
2018-04-09T12:55:42.235Z,39.90
2018-04-09T12:58:09.689Z,46.90
2018-04-09T13:00:37.147Z,59.57
2018-04-09T13:03:04.619Z,57.73
2018-04-09T13:05:32.865Z,65.23
2018-04-09T13:08:00.327Z,63.57
2018-04-09T13:10:27.846Z,60.43
2018-04-09T13:12:55.308Z,54.67
2018-04-09T13:15:22.771Z,46.03
2018-04-09T13:17:50.239Z,43.03
2018-04-09T13:20:17.708Z,41.30
2018-04-09T13:22:45.185Z,49.27
2018-04-09T13:25:12.642Z,55.63
2018-04-09T13:27:40.112Z,44.10
2018-04-09T13:30:08.339Z,45.30
2018-04-09T13:32:36.612Z,46.53
2018-04-09T13:35:04.143Z,52.27
2018-04-09T13:37:31.661Z,47.17
2018-04-09T13:39:59.154Z,42.30
2018-04-09T13:42:27.371Z,40.00
2018-04-09T13:44:54.835Z,45.90
2018-04-09T13:47:22.314Z,45.50
2018-04-09T13:49:49.772Z,52.20
2018-04-09T13:52:17.274Z,42.90
2018-04-09T13:54:44.748Z,48.97
2018-04-09T13:57:12.212Z,40.20
2018-04-09T13:59:39.672Z,39.70
2018-04-09T14:02:07.172Z,39.33
2018-04-09T14:04:35.396Z,40.77
2018-04-09T14:07:02.860Z,45.57
2018-04-09T14:09:30.345Z,44.13
2018-04-09T14:11:57.850Z,48.53
2018-04-09T14:14:25.306Z,38.63
2018-04-09T14:16:52.785Z,47.57
2018-04-09T14:19:20.247Z,47.40
2018-04-09T14:21:47.714Z,41.93
2018-04-09T14:24:15.195Z,36.07
2018-04-09T14:26:43.432Z,41.90
2018-04-09T14:29:10.926Z,42.70
2018-04-09T14:31:38.418Z,42.70
2018-04-09T14:34:06.326Z,40.97
2018-04-09T14:36:34.100Z,43.87
2018-04-09T14:39:02.411Z,41.60
2018-04-09T14:41:29.873Z,37.53
2018-04-09T14:43:57.348Z,37.27
2018-04-09T14:46:24.824Z,36.23
2018-04-09T14:48:52.275Z,40.43
2018-04-09T14:51:19.743Z,39.17
2018-04-09T14:53:47.240Z,39.90
2018-04-09T14:56:15.463Z,35.33
2018-04-09T14:58:42.994Z,39.17
2018-04-09T15:01:10.492Z,39.93
2018-04-09T15:03:37.947Z,39.67
2018-04-09T15:06:06.244Z,47.77
2018-04-09T15:08:33.730Z,49.63
2018-04-09T15:11:01.960Z,41.03
2018-04-09T15:13:29.428Z,49.13
2018-04-09T15:15:56.899Z,37.33
2018-04-09T15:18:24.365Z,43.17
2018-04-09T15:20:51.828Z,42.40
2018-04-09T15:23:20.063Z,52.33
2018-04-09T15:25:47.515Z,38.67
2018-04-09T15:28:14.983Z,43.13
2018-04-09T15:30:42.464Z,40.77
2018-04-09T15:33:10.693Z,38.20
2018-04-09T15:35:38.139Z,38.73
2018-04-09T15:38:05.619Z,41.27
2018-04-09T15:40:33.067Z,38.57
2018-04-09T15:43:00.536Z,45.07
2018-04-09T15:45:28.012Z,38.13
2018-04-09T15:47:55.463Z,36.57
2018-04-09T15:50:22.930Z,37.67
2018-04-09T15:52:50.452Z,41.50
2018-04-09T15:55:17.919Z,32.40
2018-04-09T15:57:45.380Z,37.23
2018-04-09T16:00:12.855Z,34.53
2018-04-09T16:02:40.334Z,41.90
2018-04-09T16:05:08.577Z,38.43
2018-04-09T16:07:39.980Z,37.90
2018-04-09T16:10:07.447Z,39.50
2018-04-09T16:12:35.783Z,47.43
2018-04-09T16:15:04.057Z,36.57
2018-04-09T16:17:32.309Z,39.50
2018-04-09T16:19:59.767Z,42.87
2018-04-09T16:22:27.247Z,38.33
2018-04-09T16:24:55.476Z,36.30
2018-04-09T16:27:22.956Z,32.80
2018-04-09T16:29:50.429Z,42.40
2018-04-09T16:32:17.888Z,41.13
2018-04-09T16:34:45.356Z,34.80
2018-04-09T16:37:13.595Z,34.03
2018-04-09T16:39:41.059Z,32.73
2018-04-09T16:42:08.542Z,34.37
2018-04-09T16:44:36.787Z,34.40
2018-04-09T16:47:04.269Z,40.60
2018-04-09T16:49:32.524Z,35.30
2018-04-09T16:52:00.039Z,38.77
2018-04-09T16:54:27.519Z,33.30
2018-04-09T16:56:54.999Z,39.33
2018-04-09T16:59:23.284Z,34.00
2018-04-09T17:01:50.771Z,31.00
2018-04-09T17:04:18.283Z,41.60
2018-04-09T17:06:45.802Z,37.83
2018-04-09T17:09:13.641Z,37.60
2018-04-09T17:11:42.773Z,38.70
2018-04-09T17:14:10.235Z,40.07
2018-04-09T17:16:37.703Z,41.27
2018-04-09T17:19:05.169Z,36.73
2018-04-09T17:21:32.641Z,35.53
2018-04-09T17:24:00.153Z,36.63
2018-04-09T17:26:27.635Z,32.30
2018-04-09T17:28:55.119Z,35.03
2018-04-09T17:31:22.571Z,34.97
2018-04-09T17:33:50.032Z,34.63
2018-04-09T17:36:17.520Z,34.83
2018-04-09T17:38:44.994Z,32.57
2018-04-09T17:41:12.452Z,39.60
2018-04-09T17:43:39.931Z,45.00
2018-04-09T17:46:07.391Z,34.27
2018-04-09T17:48:35.876Z,41.40
2018-04-09T17:51:03.344Z,39.60
2018-04-09T17:53:30.796Z,34.10
2018-04-09T17:55:59.076Z,39.90
2018-04-09T17:58:26.549Z,40.70
2018-04-09T18:00:54.816Z,35.87
2018-04-09T18:03:22.289Z,31.47
2018-04-09T18:05:50.544Z,39.07
2018-04-09T18:08:18.336Z,33.37
2018-04-09T18:10:46.570Z,39.40
2018-04-09T18:13:14.054Z,32.70
2018-04-09T18:15:41.574Z,41.77
2018-04-09T18:18:09.011Z,33.80
2018-04-09T18:20:36.544Z,47.43
2018-04-09T18:23:04.008Z,37.80
2018-04-09T18:25:31.464Z,37.87
2018-04-09T18:27:58.970Z,39.73
2018-04-09T18:30:27.191Z,36.33
2018-04-09T18:32:54.691Z,37.43
2018-04-09T18:35:22.209Z,35.77
2018-04-09T18:37:50.445Z,36.60
2018-04-09T18:40:17.915Z,39.60
2018-04-09T18:42:45.414Z,31.80
2018-04-09T18:45:12.915Z,37.00
2018-04-09T18:47:40.372Z,32.00
2018-04-09T18:50:07.840Z,37.40
2018-04-09T18:52:35.313Z,37.27
2018-04-09T18:55:03.544Z,35.10
2018-04-09T18:57:31.020Z,33.60
2018-04-09T18:59:58.523Z,38.00
2018-04-09T19:02:25.993Z,36.07
2018-04-09T19:04:53.481Z,33.73
2018-04-09T19:07:20.931Z,39.10
2018-04-09T19:09:48.418Z,41.50
2018-04-09T19:12:15.899Z,36.90
2018-04-09T19:14:43.359Z,33.07
2018-04-09T19:17:10.820Z,30.30
2018-04-09T19:19:38.327Z,36.23
2018-04-09T19:22:05.771Z,37.73
2018-04-09T19:24:33.235Z,40.37
2018-04-09T19:27:00.718Z,37.63
2018-04-09T19:29:28.182Z,35.50
2018-04-09T19:31:56.418Z,34.60
2018-04-09T19:34:23.900Z,33.17
2018-04-09T19:36:57.078Z,41.47
2018-04-09T19:39:30.360Z,36.23
2018-04-09T19:41:57.828Z,38.43
2018-04-09T19:44:25.344Z,43.30
2018-04-09T19:46:52.806Z,44.80
2018-04-09T19:49:20.263Z,39.73
2018-04-09T19:51:47.745Z,38.73
2018-04-09T19:54:15.222Z,38.80
2018-04-09T19:56:42.692Z,39.40
2018-04-09T19:59:10.983Z,39.67
2018-04-09T20:01:38.412Z,38.73
2018-04-09T20:04:05.871Z,37.90
2018-04-09T20:06:33.440Z,38.13
2018-04-09T20:09:01.676Z,42.57
2018-04-09T20:11:29.148Z,38.87
2018-04-09T20:13:57.237Z,43.43
2018-04-09T20:16:24.696Z,44.37
2018-04-09T20:18:52.196Z,39.03
2018-04-09T20:21:19.652Z,40.37
2018-04-09T20:23:47.133Z,45.47
2018-04-09T20:26:14.604Z,42.27
2018-04-09T20:28:42.096Z,39.13
2018-04-09T20:31:10.328Z,41.73
2018-04-09T20:33:37.816Z,43.20
2018-04-09T20:36:06.076Z,47.97
2018-04-09T20:38:33.540Z,35.73
2018-04-09T20:41:01.063Z,41.50
2018-04-09T20:43:28.567Z,41.80
2018-04-09T20:45:56.156Z,38.50
2018-04-09T20:48:23.628Z,35.93
2018-04-09T20:50:51.132Z,45.27
2018-04-09T20:53:18.585Z,39.50
2018-04-09T20:55:46.080Z,43.00
2018-04-09T20:58:14.309Z,39.83
2018-04-09T21:00:41.760Z,37.23
2018-04-09T21:03:09.240Z,37.93
2018-04-09T21:05:38.479Z,46.27
2018-04-09T21:08:05.986Z,43.20
2018-04-09T21:10:33.490Z,43.57
2018-04-09T21:13:00.950Z,39.57
2018-04-09T21:15:28.429Z,43.27
2018-04-09T21:17:55.913Z,39.97
2018-04-09T21:20:23.372Z,46.37
2018-04-09T21:22:50.848Z,45.47
2018-04-09T21:25:19.101Z,41.60
2018-04-09T21:27:46.565Z,46.80
2018-04-09T21:30:14.036Z,43.03
2018-04-09T21:32:42.257Z,48.77
2018-04-09T21:35:09.725Z,39.83
2018-04-09T21:37:37.200Z,39.90
2018-04-09T21:40:04.660Z,42.90
2018-04-09T21:42:32.125Z,40.80
2018-04-09T21:45:00.405Z,37.80
2018-04-09T21:47:27.950Z,35.90
2018-04-09T21:49:55.420Z,41.63
2018-04-09T21:52:22.972Z,42.43
2018-04-09T21:54:50.440Z,44.33
2018-04-09T21:57:18.677Z,43.13
2018-04-09T21:59:46.156Z,50.80
2018-04-09T22:02:13.614Z,46.57
2018-04-09T22:04:41.070Z,42.20
2018-04-09T22:07:08.540Z,42.47
2018-04-09T22:09:37.677Z,39.03
2018-04-09T22:12:05.129Z,47.47
2018-04-09T22:14:32.691Z,38.70
2018-04-09T22:17:00.135Z,48.80
2018-04-09T22:19:27.611Z,37.97
2018-04-09T22:21:55.078Z,43.93
2018-04-09T22:24:22.545Z,39.10
2018-04-09T22:26:50.016Z,45.30
2018-04-09T22:29:17.639Z,45.17
2018-04-09T22:31:45.137Z,39.33
2018-04-09T22:34:12.607Z,34.50
2018-04-09T22:36:40.136Z,37.97
2018-04-09T22:39:07.636Z,41.90
2018-04-09T22:41:35.051Z,40.50
2018-04-09T22:44:02.576Z,38.07
2018-04-09T22:46:30.024Z,43.77
2018-04-09T22:48:58.306Z,40.30
2018-04-09T22:51:25.775Z,49.27
2018-04-09T22:53:53.232Z,46.47
2018-04-09T22:56:20.700Z,35.90
2018-04-09T22:58:48.171Z,47.23
2018-04-09T23:01:15.628Z,47.97
2018-04-09T23:03:43.091Z,38.50
2018-04-09T23:06:10.564Z,41.53
2018-04-09T23:08:38.795Z,43.27
2018-04-09T23:11:06.252Z,47.33
2018-04-09T23:13:33.741Z,49.33
2018-04-09T23:16:01.412Z,60.57
2018-04-09T23:18:28.868Z,47.57
2018-04-09T23:20:56.345Z,46.27
2018-04-09T23:23:24.573Z,51.40
2018-04-09T23:25:52.036Z,50.90
2018-04-09T23:28:19.516Z,59.00
2018-04-09T23:30:46.991Z,52.70
2018-04-09T23:33:15.221Z,50.00
2018-04-09T23:35:42.700Z,51.60
2018-04-09T23:38:11.664Z,56.03
2018-04-09T23:40:39.127Z,47.83
2018-04-09T23:43:06.595Z,58.50
2018-04-09T23:45:34.113Z,49.80
2018-04-09T23:48:01.566Z,47.40
2018-04-09T23:50:29.072Z,51.90
2018-04-09T23:52:56.591Z,49.17
2018-04-09T23:55:24.047Z,57.40
2018-04-09T23:57:51.528Z,55.00
